Main page
METAR-TAF:

METAR-TAF

Airports :

Weno, Weno Island, Micronesia

Chuuk International Airport

latitude: 07-28N, longitude: 151-51E, elevation: 3 m

Current weather observation

The report was made 56 minutes ago, at 01:50 UTC
Wind 8 kt from the Northeast
Temperature 31°C
Humidity 71%
Pressure 1012 hPa
Visibility: 24.1 km
Few clouds at a height of 1400 ft
Broken clouds at a height of 12000 ft
Overcast at a height of 28000 ft

METAR: PTKK 300150Z 05008KT 15SM FEW014 BKN120 OVC280 31/25 A2987 RMK CB DSNT NE AND S-SW SLP118 T03060253

Time: 12:46 (02:46 UTC)

Forecast

The report was made 3 hours and 14 minutes ago, at 23:32 UTC
Forecast valid from 30 at 00 UTC to 30 at 24 UTC
Wind 11 kt from the Northeast
Visibility: 10 km
Scattered clouds at a height of 1400 ft
Broken clouds at a height of 12000 ft
showers in vicinity

TAF: PTKK 292332Z 3000/3024 05011KT P6SM VCSH SCT014 BKN120

Weather observations and forecasts of more than 4000 airports (METAR and TAF reports).

The available stations are represented by yellow and red dots on the map.

Hover mouse over dot to see the name of the station.

Then click to see weather observations and forecasts.

To change the map : click on the green buttons with a black cross to zoom in, on the green button with a dash to zoom out, or on the green arrows for adjacent maps.


METAR-TAF: